Time;durP1;ratioP1;P1;durP2;ratioP2;P2;SDS_P1;SDS_P2;PMS_P1;PMS_P2;Temp;Humidity;BMP_temperature;BMP_pressure;BME280_temperature;BME280_humidity;BME280_pressure;Samples;Min_cycle;Max_cycle;Signal;HPM_P1;HPM_P2
2023/07/22 00:01:08;;;;;;;6.07;4.25;;;;;;;;;;6279414;28;20105;-83
2023/07/22 00:04:10;;;;;;;5.28;4.03;;;;;;;;;;6282946;28;20059;-82
2023/07/22 00:07:11;;;;;;;6.22;4.38;;;;;;;;;;6291910;28;20142;-82
2023/07/22 00:10:13;;;;;;;6.53;4.35;;;;;;;;;;6275978;28;20055;-83
2023/07/22 00:13:15;;;;;;;6.43;4.22;;;;;;;;;;6296025;28;20055;-82
2023/07/22 00:16:17;;;;;;;5.10;3.75;;;;;;;;;;6275137;28;20146;-82
2023/07/22 00:19:19;;;;;;;6.22;4.60;;;;;;;;;;6278266;28;20043;-83
2023/07/22 00:22:22;;;;;;;5.85;4.00;;;;;;;;;;6290537;28;20498;-83
2023/07/22 00:25:24;;;;;;;5.32;4.05;;;;;;;;;;6273523;28;20090;-82
2023/07/22 00:28:26;;;;;;;5.63;4.00;;;;;;;;;;6290269;28;20048;-83
2023/07/22 00:31:27;;;;;;;6.10;4.13;;;;;;;;;;6277108;28;20040;-82
2023/07/22 00:34:29;;;;;;;5.50;4.32;;;;;;;;;;6276106;28;20506;-82
2023/07/22 00:37:32;;;;;;;4.97;4.10;;;;;;;;;;6260469;28;20508;-83
2023/07/22 00:40:33;;;;;;;5.60;3.85;;;;;;;;;;6289518;28;20129;-83
2023/07/22 00:43:35;;;;;;;6.38;4.38;;;;;;;;;;6277743;28;20733;-83
2023/07/22 00:46:36;;;;;;;5.38;4.45;;;;;;;;;;6296049;28;20055;-82
2023/07/22 00:49:38;;;;;;;7.47;4.65;;;;;;;;;;6280860;28;20041;-85
2023/07/22 00:52:40;;;;;;;5.10;4.10;;;;;;;;;;6297647;28;20043;-84
2023/07/22 00:55:42;;;;;;;6.60;4.25;;;;;;;;;;6295138;28;20518;-83
2023/07/22 00:58:44;;;;;;;6.15;4.05;;;;;;;;;;6286760;28;20040;-83
2023/07/22 01:01:45;;;;;;;6.10;4.55;;;;;;;;;;6283310;28;20048;-83
2023/07/22 01:04:49;;;;;;;6.68;4.72;;;;;;;;;;6288837;28;20051;-83
2023/07/22 01:07:51;;;;;;;5.93;4.22;;;;;;;;;;6282911;28;20407;-82
2023/07/22 01:10:54;;;;;;;6.13;4.40;;;;;;;;;;6276563;28;20490;-83
2023/07/22 01:13:59;;;;;;;5.50;4.47;;;;;;;;;;6298761;28;20455;-83
2023/07/22 01:17:05;;;;;;;7.38;4.72;;;;;;;;;;6269251;28;20126;-82
2023/07/22 01:20:09;;;;;;;9.55;4.60;;;;;;;;;;6277119;28;20049;-83
2023/07/22 01:23:11;;;;;;;6.13;4.35;;;;;;;;;;6285418;28;20165;-83
2023/07/22 01:26:13;;;;;;;6.43;4.22;;;;;;;;;;6298170;28;20040;-84
2023/07/22 01:29:15;;;;;;;4.60;3.70;;;;;;;;;;6261403;28;20386;-83
2023/07/22 01:32:18;;;;;;;5.85;4.07;;;;;;;;;;6280240;28;20486;-83
2023/07/22 01:35:20;;;;;;;5.18;3.67;;;;;;;;;;6262323;28;20048;-83
2023/07/22 01:38:22;;;;;;;5.23;3.87;;;;;;;;;;6275380;28;20067;-83
2023/07/22 01:41:24;;;;;;;6.78;4.50;;;;;;;;;;6257823;28;20044;-82
2023/07/22 01:44:25;;;;;;;6.25;4.60;;;;;;;;;;6283387;28;20044;-83
2023/07/22 01:47:27;;;;;;;7.10;4.20;;;;;;;;;;6297056;28;20039;-82
2023/07/22 01:50:28;;;;;;;6.25;3.92;;;;;;;;;;6277407;28;20051;-82
2023/07/22 01:53:30;;;;;;;8.85;4.15;;;;;;;;;;6298849;28;20524;-82
2023/07/22 01:56:32;;;;;;;5.70;3.88;;;;;;;;;;6301743;28;20040;-82
2023/07/22 01:59:34;;;;;;;5.55;3.90;;;;;;;;;;6285768;28;20048;-82
2023/07/22 02:02:36;;;;;;;7.28;4.32;;;;;;;;;;6287197;28;20040;-82
2023/07/22 02:05:38;;;;;;;7.33;4.33;;;;;;;;;;6272622;28;20037;-82
2023/07/22 02:08:40;;;;;;;5.60;4.20;;;;;;;;;;6316929;28;20514;-81
2023/07/22 02:11:42;;;;;;;5.35;3.85;;;;;;;;;;6306838;28;20040;-83
2023/07/22 02:14:43;;;;;;;5.60;4.25;;;;;;;;;;6287877;28;20051;-84
2023/07/22 02:17:45;;;;;;;6.32;4.30;;;;;;;;;;6306225;28;20505;-82
2023/07/22 02:20:47;;;;;;;5.88;4.20;;;;;;;;;;6285890;28;20048;-83
2023/07/22 02:23:49;;;;;;;6.40;4.88;;;;;;;;;;6281574;28;20379;-83
2023/07/22 02:26:50;;;;;;;6.88;4.43;;;;;;;;;;6266768;28;20048;-82
2023/07/22 02:29:52;;;;;;;6.65;4.28;;;;;;;;;;6303071;28;20055;-84
2023/07/22 02:32:54;;;;;;;6.35;3.97;;;;;;;;;;6300598;28;20040;-82
2023/07/22 02:35:55;;;;;;;6.50;4.47;;;;;;;;;;6278930;28;20041;-83
2023/07/22 02:38:57;;;;;;;4.75;4.25;;;;;;;;;;6298501;28;20052;-85
2023/07/22 02:41:59;;;;;;;5.85;4.07;;;;;;;;;;6287322;28;20052;-83
2023/07/22 02:45:01;;;;;;;5.82;3.90;;;;;;;;;;6305712;28;20570;-84
2023/07/22 02:48:04;;;;;;;5.53;3.92;;;;;;;;;;6290455;28;20514;-83
2023/07/22 02:51:12;;;;;;;5.20;3.87;;;;;;;;;;6284159;28;20040;-84
2023/07/22 02:54:14;;;;;;;5.07;3.72;;;;;;;;;;6279524;28;20055;-82
2023/07/22 02:57:15;;;;;;;7.70;4.47;;;;;;;;;;6301889;28;20060;-82
2023/07/22 03:00:25;;;;;;;8.00;4.80;;;;;;;;;;6306608;28;20040;-82
2023/07/22 03:03:27;;;;;;;5.93;3.95;;;;;;;;;;6306923;28;20133;-82
2023/07/22 03:06:30;;;;;;;6.32;4.30;;;;;;;;;;6292617;28;21177;-83
2023/07/22 03:09:31;;;;;;;;;;;;;;;;;;6275107;28;20047;-82
2023/07/22 03:12:34;;;;;;;6.55;4.25;;;;;;;;;;6300171;28;19924;-82
2023/07/22 03:15:35;;;;;;;6.47;4.20;;;;;;;;;;6285799;28;20044;-83
2023/07/22 03:18:39;;;;;;;8.25;4.82;;;;;;;;;;6300268;28;20131;-83
2023/07/22 03:21:41;;;;;;;8.23;4.82;;;;;;;;;;6281462;28;20120;-83
2023/07/22 03:24:44;;;;;;;7.25;4.95;;;;;;;;;;6282481;28;20044;-82
2023/07/22 03:27:46;;;;;;;8.93;5.22;;;;;;;;;;6289497;28;20047;-82
2023/07/22 03:30:47;;;;;;;8.02;5.43;;;;;;;;;;6304292;28;20040;-83
2023/07/22 03:33:49;;;;;;;7.50;5.50;;;;;;;;;;6287269;28;20048;-83
2023/07/22 03:36:51;;;;;;;6.57;5.10;;;;;;;;;;6297611;28;20125;-81
2023/07/22 03:39:53;;;;;;;6.65;3.85;;;;;;;;;;6301718;28;20048;-81
2023/07/22 03:42:56;;;;;;;7.13;4.20;;;;;;;;;;6289904;28;20459;-82
2023/07/22 03:45:57;;;;;;;5.45;3.72;;;;;;;;;;6298023;28;20509;-82
2023/07/22 03:48:59;;;;;;;5.50;3.88;;;;;;;;;;6293405;28;20066;-82
2023/07/22 03:52:01;;;;;;;5.85;4.05;;;;;;;;;;6306031;28;20092;-80
2023/07/22 03:55:03;;;;;;;5.82;4.05;;;;;;;;;;6291534;28;20047;-80
2023/07/22 03:58:04;;;;;;;6.03;3.77;;;;;;;;;;6303952;28;20048;-80
2023/07/22 04:01:06;;;;;;;7.82;4.57;;;;;;;;;;6291418;28;20048;-81
2023/07/22 04:04:08;;;;;;;5.78;3.65;;;;;;;;;;6294602;28;20044;-82
2023/07/22 04:07:09;;;;;;;6.05;4.18;;;;;;;;;;6300092;28;20131;-79
2023/07/22 04:10:11;;;;;;;6.68;4.72;;;;;;;;;;6287624;28;20676;-81
2023/07/22 04:13:13;;;;;;;7.18;4.20;;;;;;;;;;6302824;28;20040;-78
2023/07/22 04:16:14;;;;;;;5.88;4.32;;;;;;;;;;6289734;28;20048;-79
2023/07/22 04:19:16;;;;;;;6.57;4.35;;;;;;;;;;6301823;28;20104;-81
2023/07/22 04:22:19;;;;;;;7.25;4.80;;;;;;;;;;6283979;28;20040;-81
2023/07/22 04:25:21;;;;;;;8.77;4.85;;;;;;;;;;6303431;28;20493;-82
2023/07/22 04:28:23;;;;;;;8.13;4.70;;;;;;;;;;6286954;28;20040;-82
2023/07/22 04:31:25;;;;;;;7.13;4.75;;;;;;;;;;6303815;28;20089;-81
2023/07/22 04:34:31;;;;;;;8.82;5.18;;;;;;;;;;6305074;28;20051;-82
2023/07/22 04:37:33;;;;;;;6.45;4.45;;;;;;;;;;6303390;28;20048;-82
2023/07/22 04:40:35;;;;;;;9.55;6.05;;;;;;;;;;6291168;28;20050;-82
2023/07/22 04:43:37;;;;;;;10.65;6.28;;;;;;;;;;6282737;28;20040;-81
2023/07/22 04:46:38;;;;;;;12.70;6.53;;;;;;;;;;6306250;28;20044;-82
2023/07/22 04:49:40;;;;;;;11.18;6.50;;;;;;;;;;6306732;28;20044;-80
2023/07/22 04:52:45;;;;;;;10.30;6.30;;;;;;;;;;6303975;28;20055;-80
2023/07/22 04:55:46;;;;;;;7.75;5.53;;;;;;;;;;6291013;28;20106;-80
2023/07/22 04:58:49;;;;;;;8.63;5.53;;;;;;;;;;6285897;28;20044;-80
2023/07/22 05:01:51;;;;;;;7.50;5.27;;;;;;;;;;6306156;28;20529;-82
2023/07/22 05:04:53;;;;;;;9.70;5.60;;;;;;;;;;6268530;28;20496;-83
2023/07/22 05:07:55;;;;;;;9.20;5.85;;;;;;;;;;6302445;28;20047;-81
2023/07/22 05:10:57;;;;;;;9.93;5.90;;;;;;;;;;6281411;28;20498;-81
2023/07/22 05:13:58;;;;;;;8.23;5.57;;;;;;;;;;6304777;28;20051;-81
2023/07/22 05:17:00;;;;;;;8.30;5.28;;;;;;;;;;6287963;28;20044;-81
2023/07/22 05:20:03;;;;;;;7.25;4.70;;;;;;;;;;6296194;28;20105;-81
2023/07/22 05:23:07;;;;;;;8.20;5.40;;;;;;;;;;6262259;28;20044;-81
2023/07/22 05:26:09;;;;;;;9.10;5.57;;;;;;;;;;6299622;28;20048;-81
2023/07/22 05:29:10;;;;;;;9.00;5.90;;;;;;;;;;6281771;28;20067;-82
2023/07/22 05:32:12;;;;;;;8.18;5.30;;;;;;;;;;6287272;28;20040;-82
2023/07/22 05:35:33;;;;;;;8.68;5.78;;;;;;;;;;6295977;28;20521;-80
2023/07/22 05:38:35;;;;;;;6.50;4.68;;;;;;;;;;6301495;28;20048;-81
2023/07/22 05:41:37;;;;;;;7.35;5.40;;;;;;;;;;6300504;28;20102;-83
2023/07/22 05:44:42;;;;;;;7.97;5.57;;;;;;;;;;6304931;28;20047;-82
2023/07/22 05:47:43;;;;;;;9.75;5.75;;;;;;;;;;6284954;28;20186;-80
2023/07/22 05:50:45;;;;;;;9.30;5.90;;;;;;;;;;6291241;28;20121;-81
2023/07/22 05:53:47;;;;;;;10.65;5.43;;;;;;;;;;6283056;28;20044;-81
2023/07/22 05:56:48;;;;;;;7.95;5.68;;;;;;;;;;6284981;28;20047;-80
2023/07/22 05:59:50;;;;;;;10.00;5.90;;;;;;;;;;6269842;28;20248;-80
2023/07/22 06:03:15;;;;;;;10.90;5.70;;;;;;;;;;6282112;28;20098;-80
2023/07/22 06:06:16;;;;;;;7.65;5.50;;;;;;;;;;6296192;28;20047;-81
2023/07/22 06:09:18;;;;;;;8.52;5.90;;;;;;;;;;6298181;28;20117;-80
2023/07/22 06:12:20;;;;;;;10.27;5.22;;;;;;;;;;6297982;28;21584;-81
2023/07/22 06:15:21;;;;;;;10.30;5.53;;;;;;;;;;6284679;28;20062;-81
2023/07/22 06:18:23;;;;;;;12.80;6.32;;;;;;;;;;6292172;28;20041;-80
2023/07/22 06:21:25;;;;;;;8.43;5.38;;;;;;;;;;6276691;28;20051;-81
2023/07/22 06:24:27;;;;;;;9.13;5.57;;;;;;;;;;6295876;28;20522;-80
2023/07/22 06:27:28;;;;;;;8.43;5.82;;;;;;;;;;6281241;28;20051;-79
2023/07/22 06:30:30;;;;;;;9.93;5.50;;;;;;;;;;6287361;28;20044;-80
2023/07/22 06:33:32;;;;;;;8.43;5.60;;;;;;;;;;6315237;28;20052;-80
2023/07/22 06:36:33;;;;;;;8.80;5.90;;;;;;;;;;6293128;28;20059;-79
2023/07/22 06:39:35;;;;;;;9.13;5.32;;;;;;;;;;6292035;28;20059;-80
2023/07/22 06:42:37;;;;;;;7.90;5.50;;;;;;;;;;6291142;28;20044;-81
2023/07/22 06:45:38;;;;;;;8.00;5.40;;;;;;;;;;6275496;28;20129;-83
2023/07/22 06:48:40;;;;;;;9.73;5.75;;;;;;;;;;6308678;28;20055;-82
2023/07/22 06:51:41;;;;;;;7.38;4.88;;;;;;;;;;6277248;28;20067;-80
2023/07/22 06:54:43;;;;;;;8.05;5.40;;;;;;;;;;6309178;28;20055;-81
2023/07/22 06:57:45;;;;;;;7.57;5.07;;;;;;;;;;6294389;28;20063;-83
2023/07/22 07:00:46;;;;;;;8.52;5.60;;;;;;;;;;6290144;28;20150;-81
2023/07/22 07:03:48;;;;;;;7.57;5.53;;;;;;;;;;6289066;28;20102;-83
2023/07/22 07:06:50;;;;;;;7.38;4.93;;;;;;;;;;6300749;28;20082;-81
2023/07/22 07:09:52;;;;;;;8.52;5.07;;;;;;;;;;6304665;28;20048;-81
2023/07/22 07:12:54;;;;;;;7.00;4.97;;;;;;;;;;6307201;28;20055;-81
2023/07/22 07:15:56;;;;;;;6.60;4.80;;;;;;;;;;6295356;28;20048;-83
2023/07/22 07:18:59;;;;;;;6.93;4.53;;;;;;;;;;6280098;28;20094;-81
2023/07/22 07:22:01;;;;;;;8.23;4.68;;;;;;;;;;6287467;28;20059;-80
2023/07/22 07:25:03;;;;;;;7.30;4.53;;;;;;;;;;6306364;28;20040;-78
2023/07/22 07:28:04;;;;;;;6.68;3.88;;;;;;;;;;6305858;28;20051;-79
2023/07/22 07:31:06;;;;;;;5.38;3.83;;;;;;;;;;6289320;28;20044;-83
2023/07/22 07:34:08;;;;;;;7.22;4.43;;;;;;;;;;6295464;28;20044;-81
2023/07/22 07:37:09;;;;;;;6.57;4.60;;;;;;;;;;6305815;28;20040;-81
2023/07/22 07:40:12;;;;;;;5.90;4.28;;;;;;;;;;6296810;28;20036;-78
2023/07/22 07:43:14;;;;;;;7.40;4.63;;;;;;;;;;6310244;28;20078;-82
2023/07/22 07:46:21;;;;;;;6.32;4.68;;;;;;;;;;6315355;28;20066;-80
2023/07/22 07:49:24;;;;;;;6.57;4.03;;;;;;;;;;6299172;28;20052;-80
2023/07/22 07:52:25;;;;;;;5.80;4.15;;;;;;;;;;6294701;28;20055;-78
2023/07/22 07:55:27;;;;;;;7.13;4.60;;;;;;;;;;6317598;28;20094;-80
2023/07/22 07:58:29;;;;;;;6.40;4.18;;;;;;;;;;6305089;28;20058;-82
2023/07/22 08:01:30;;;;;;;5.43;4.47;;;;;;;;;;6275991;28;20044;-82
2023/07/22 08:04:32;;;;;;;6.18;4.35;;;;;;;;;;6304852;28;20044;-82
2023/07/22 08:07:34;;;;;;;6.50;4.45;;;;;;;;;;6276880;28;20421;-83
2023/07/22 08:10:36;;;;;;;7.72;4.90;;;;;;;;;;6288432;28;20062;-83
2023/07/22 08:13:39;;;;;;;7.28;4.63;;;;;;;;;;6286768;28;20048;-84
2023/07/22 08:16:40;;;;;;;6.45;4.03;;;;;;;;;;6307140;28;20051;-83
2023/07/22 08:19:42;;;;;;;6.28;4.50;;;;;;;;;;6295528;28;20071;-83
2023/07/22 08:22:44;;;;;;;6.80;3.85;;;;;;;;;;6304646;28;20040;-81
2023/07/22 08:25:46;;;;;;;5.63;4.47;;;;;;;;;;6303607;28;20044;-80
2023/07/22 08:28:47;;;;;;;7.10;4.28;;;;;;;;;;6302629;28;20055;-82
2023/07/22 08:31:49;;;;;;;6.25;3.90;;;;;;;;;;6298657;28;20043;-82
2023/07/22 08:34:51;;;;;;;8.20;4.60;;;;;;;;;;6289058;28;20109;-82
2023/07/22 08:37:53;;;;;;;6.90;4.60;;;;;;;;;;6283302;28;20048;-81
2023/07/22 08:40:55;;;;;;;7.50;4.35;;;;;;;;;;6295660;28;20040;-81
2023/07/22 08:43:59;;;;;;;6.32;4.20;;;;;;;;;;6302516;28;20178;-81
2023/07/22 08:47:03;;;;;;;6.22;4.45;;;;;;;;;;6305733;28;20406;-80
2023/07/22 08:50:06;;;;;;;6.18;4.80;;;;;;;;;;6306876;28;20502;-81
2023/07/22 08:53:09;;;;;;;6.60;4.00;;;;;;;;;;6288369;28;20471;-83
2023/07/22 08:56:11;;;;;;;;;;;;;;;;;;6276843;28;20056;-79
2023/07/22 08:59:14;;;;;;;6.40;4.20;;;;;;;;;;6298862;28;20445;-79
2023/07/22 09:02:16;;;;;;;5.72;3.55;;;;;;;;;;6299765;28;20457;-82
2023/07/22 09:05:18;;;;;;;4.97;4.00;;;;;;;;;;6284409;28;20119;-81
2023/07/22 09:08:20;;;;;;;5.10;4.18;;;;;;;;;;6293466;28;20044;-80
2023/07/22 09:11:23;;;;;;;6.75;3.90;;;;;;;;;;6294668;28;20811;-80
2023/07/22 09:14:26;;;;;;;5.38;4.25;;;;;;;;;;6280304;28;20079;-79
2023/07/22 09:17:40;;;;;;;5.72;4.50;;;;;;;;;;6276372;28;20556;-81
2023/07/22 09:20:42;;;;;;;5.45;3.97;;;;;;;;;;6288195;28;20147;-80
2023/07/22 09:23:44;;;;;;;5.03;3.90;;;;;;;;;;6295348;28;20052;-79
2023/07/22 09:26:45;;;;;;;5.03;3.88;;;;;;;;;;6298884;28;20052;-80
2023/07/22 09:29:48;;;;;;;7.20;4.15;;;;;;;;;;6294636;28;20525;-80
2023/07/22 09:32:51;;;;;;;4.30;3.30;;;;;;;;;;6296602;28;20044;-79
2023/07/22 09:35:54;;;;;;;7.60;3.45;;;;;;;;;;6281075;28;20075;-80
2023/07/22 09:39:03;;;;;;;5.75;3.63;;;;;;;;;;6301577;28;20044;-80
2023/07/22 09:42:06;;;;;;;4.75;3.30;;;;;;;;;;6296939;28;20048;-79
2023/07/22 09:45:08;;;;;;;3.97;3.30;;;;;;;;;;6302291;28;20502;-82
2023/07/22 09:48:10;;;;;;;6.30;3.00;;;;;;;;;;6301533;28;20557;-79
2023/07/22 09:51:14;;;;;;;3.95;3.13;;;;;;;;;;6278820;28;20040;-82
2023/07/22 09:54:15;;;;;;;3.90;2.60;;;;;;;;;;6297746;28;20040;-81
2023/07/22 09:57:18;;;;;;;3.15;2.35;;;;;;;;;;6301643;28;20313;-82
2023/07/22 10:00:25;;;;;;;3.65;2.70;;;;;;;;;;6290012;28;20051;-81
2023/07/22 10:03:30;;;;;;;3.95;2.58;;;;;;;;;;6298397;28;20049;-82
2023/07/22 10:06:33;;;;;;;4.18;2.78;;;;;;;;;;6295971;28;20514;-83
2023/07/22 10:09:36;;;;;;;;;;;;;;;;;;6299675;28;20052;-79
2023/07/22 10:12:40;;;;;;;5.25;2.67;;;;;;;;;;6287768;28;20415;-80
2023/07/22 10:15:42;;;;;;;3.55;2.60;;;;;;;;;;6287142;28;20056;-80
2023/07/22 10:18:46;;;;;;;3.63;2.75;;;;;;;;;;6302663;28;20048;-79
2023/07/22 10:21:49;;;;;;;7.40;2.95;;;;;;;;;;6302814;28;20490;-79
2023/07/22 10:24:53;;;;;;;5.32;3.00;;;;;;;;;;6287375;28;20131;-81
2023/07/22 10:27:55;;;;;;;5.38;3.08;;;;;;;;;;6299301;28;20071;-79
2023/07/22 10:30:58;;;;;;;3.80;2.95;;;;;;;;;;6300108;28;20063;-80
2023/07/22 10:34:00;;;;;;;4.95;3.15;;;;;;;;;;6299496;28;20363;-80
2023/07/22 10:37:04;;;;;;;3.88;3.10;;;;;;;;;;6283289;28;20523;-80
2023/07/22 10:40:24;;;;;;;5.30;3.00;;;;;;;;;;6304926;28;20048;-82
2023/07/22 10:43:35;;;;;;;4.47;3.35;;;;;;;;;;6299392;28;20560;-81
2023/07/22 10:46:43;;;;;;;6.20;3.30;;;;;;;;;;6307828;28;20620;-81
2023/07/22 10:49:48;;;;;;;4.47;2.92;;;;;;;;;;6296719;28;20122;-80
2023/07/22 10:52:50;;;;;;;6.55;3.42;;;;;;;;;;6304182;28;20413;-80
2023/07/22 10:56:13;;;;;;;4.65;3.25;;;;;;;;;;6308868;28;20051;-81
2023/07/22 10:59:14;;;;;;;3.50;2.92;;;;;;;;;;6291052;28;20044;-81
2023/07/22 11:02:26;;;;;;;3.30;2.77;;;;;;;;;;6295405;28;20255;-81
2023/07/22 11:05:51;;;;;;;4.13;2.70;;;;;;;;;;6301502;28;20045;-80
2023/07/22 11:08:52;;;;;;;3.55;3.00;;;;;;;;;;6293863;28;21126;-79
2023/07/22 11:11:56;;;;;;;3.58;2.50;;;;;;;;;;6304962;28;20041;-84
2023/07/22 11:15:05;;;;;;;3.70;2.20;;;;;;;;;;6281987;28;20040;-81
2023/07/22 11:18:07;;;;;;;2.65;2.17;;;;;;;;;;6271170;28;20049;-82
2023/07/22 11:21:11;;;;;;;2.17;1.90;;;;;;;;;;6286196;28;20620;-80
2023/07/22 11:24:13;;;;;;;3.42;2.45;;;;;;;;;;6282169;28;20194;-81
2023/07/22 11:27:15;;;;;;;2.95;2.05;;;;;;;;;;6284567;28;20048;-81
2023/07/22 11:30:17;;;;;;;2.80;2.25;;;;;;;;;;6303338;28;20639;-80
2023/07/22 11:33:18;;;;;;;4.60;2.53;;;;;;;;;;6286557;28;20387;-82
2023/07/22 11:36:20;;;;;;;3.13;2.50;;;;;;;;;;6298720;28;20055;-83
2023/07/22 11:39:24;;;;;;;3.20;2.67;;;;;;;;;;6302606;28;20124;-81
2023/07/22 11:42:26;;;;;;;3.35;2.55;;;;;;;;;;6285766;28;20497;-81
2023/07/22 11:45:28;;;;;;;3.37;2.57;;;;;;;;;;6312886;28;20048;-81
2023/07/22 11:48:29;;;;;;;2.83;2.53;;;;;;;;;;6275749;28;20051;-83
2023/07/22 11:51:33;;;;;;;3.78;2.67;;;;;;;;;;6288253;28;20051;-82
2023/07/22 11:54:40;;;;;;;2.90;2.42;;;;;;;;;;6295890;28;20075;-80
2023/07/22 11:57:42;;;;;;;3.42;2.47;;;;;;;;;;6305743;28;20036;-81
2023/07/22 12:00:44;;;;;;;3.00;2.17;;;;;;;;;;6284590;28;20067;-81
2023/07/22 12:04:01;;;;;;;4.57;2.88;;;;;;;;;;6300629;28;20169;-82
2023/07/22 12:07:04;;;;;;;5.30;2.83;;;;;;;;;;6297905;28;20086;-82
2023/07/22 12:10:07;;;;;;;4.68;2.95;;;;;;;;;;6290552;28;20106;-79
2023/07/22 12:13:08;;;;;;;4.10;2.60;;;;;;;;;;6287593;28;20048;-82
2023/07/22 12:16:10;;;;;;;4.70;2.90;;;;;;;;;;6306883;28;20036;-80
2023/07/22 12:19:12;;;;;;;5.50;2.90;;;;;;;;;;6304550;28;20557;-81
2023/07/22 12:22:13;;;;;;;3.83;2.90;;;;;;;;;;6297287;28;20508;-80
2023/07/22 12:25:15;;;;;;;3.47;2.90;;;;;;;;;;6290484;28;20048;-80
2023/07/22 12:28:17;;;;;;;4.45;2.72;;;;;;;;;;6290410;28;20045;-79
2023/07/22 12:31:19;;;;;;;8.98;3.00;;;;;;;;;;6299656;28;20040;-80
2023/07/22 12:34:20;;;;;;;4.40;2.73;;;;;;;;;;6315296;28;20047;-82
2023/07/22 12:37:23;;;;;;;3.20;2.58;;;;;;;;;;6301048;28;20524;-81
2023/07/22 12:40:25;;;;;;;4.33;2.90;;;;;;;;;;6293833;28;20036;-82
2023/07/22 12:43:27;;;;;;;4.67;2.90;;;;;;;;;;6293658;28;20055;-81
2023/07/22 12:46:28;;;;;;;3.35;2.97;;;;;;;;;;6313291;28;20048;-81
2023/07/22 12:49:30;;;;;;;4.10;3.65;;;;;;;;;;6293105;28;20032;-80
2023/07/22 12:52:32;;;;;;;4.10;3.53;;;;;;;;;;6289527;28;20498;-81
2023/07/22 12:55:33;;;;;;;4.67;3.20;;;;;;;;;;6267469;28;20079;-83
2023/07/22 12:58:35;;;;;;;3.67;2.80;;;;;;;;;;6289008;28;20044;-81
2023/07/22 13:01:39;;;;;;;5.00;2.73;;;;;;;;;;6303917;28;20044;-82
2023/07/22 13:04:41;;;;;;;4.15;2.97;;;;;;;;;;6307106;28;20051;-81
2023/07/22 13:07:42;;;;;;;4.45;2.70;;;;;;;;;;6287490;28;20051;-81
2023/07/22 13:10:46;;;;;;;3.40;3.00;;;;;;;;;;6306725;28;20040;-81
2023/07/22 13:13:48;;;;;;;3.10;2.80;;;;;;;;;;6303073;28;20133;-80
2023/07/22 13:16:50;;;;;;;3.17;2.87;;;;;;;;;;6300072;28;20047;-81
2023/07/22 13:19:52;;;;;;;3.63;2.90;;;;;;;;;;6273215;28;20066;-80
2023/07/22 13:22:53;;;;;;;3.73;2.87;;;;;;;;;;6298195;28;20085;-81
2023/07/22 13:25:55;;;;;;;3.40;2.90;;;;;;;;;;6299215;28;20365;-80
2023/07/22 13:28:56;;;;;;;4.97;3.17;;;;;;;;;;6276394;28;20036;-79
2023/07/22 13:31:58;;;;;;;3.83;2.80;;;;;;;;;;6279265;28;20041;-82
2023/07/22 13:35:00;;;;;;;4.30;3.08;;;;;;;;;;6284800;28;20074;-80
2023/07/22 13:38:01;;;;;;;3.47;2.93;;;;;;;;;;6299195;28;20650;-80
2023/07/22 13:41:03;;;;;;;4.40;2.83;;;;;;;;;;6280160;28;20048;-81
2023/07/22 13:44:05;;;;;;;3.67;2.60;;;;;;;;;;6267901;28;20047;-80
2023/07/22 13:47:06;;;;;;;3.67;2.83;;;;;;;;;;6284737;28;20450;-81
2023/07/22 13:50:09;;;;;;;3.47;3.15;;;;;;;;;;6284480;28;20190;-80
2023/07/22 13:53:10;;;;;;;3.28;2.72;;;;;;;;;;6290028;28;20050;-81
2023/07/22 13:56:12;;;;;;;3.67;2.85;;;;;;;;;;6302788;28;20047;-80
2023/07/22 13:59:14;;;;;;;4.03;3.20;;;;;;;;;;6299053;28;20044;-78
2023/07/22 14:02:15;;;;;;;4.20;2.88;;;;;;;;;;6308532;28;20438;-80
2023/07/22 14:05:17;;;;;;;3.67;2.97;;;;;;;;;;6303803;28;20063;-81
2023/07/22 14:08:19;;;;;;;3.77;2.80;;;;;;;;;;6310182;28;20445;-80
2023/07/22 14:11:20;;;;;;;4.80;3.10;;;;;;;;;;6296016;28;20043;-79
2023/07/22 14:14:28;;;;;;;4.22;3.17;;;;;;;;;;6292822;28;20043;-80
2023/07/22 14:17:33;;;;;;;4.15;3.22;;;;;;;;;;6312961;28;20064;-81
2023/07/22 14:20:35;;;;;;;5.55;2.95;;;;;;;;;;6311032;28;20056;-79
2023/07/22 14:23:39;;;;;;;3.20;2.75;;;;;;;;;;6299336;28;20060;-82
2023/07/22 14:26:41;;;;;;;3.50;3.03;;;;;;;;;;6297411;28;20048;-80
2023/07/22 14:29:44;;;;;;;4.15;3.00;;;;;;;;;;6298200;28;20045;-80
2023/07/22 14:32:47;;;;;;;3.17;2.75;;;;;;;;;;6301895;28;20051;-81
2023/07/22 14:35:49;;;;;;;4.25;3.20;;;;;;;;;;6295059;28;20055;-82
2023/07/22 14:38:51;;;;;;;4.55;2.95;;;;;;;;;;6292764;28;20040;-79
2023/07/22 14:41:53;;;;;;;4.07;3.00;;;;;;;;;;6281269;28;20082;-79
2023/07/22 14:44:55;;;;;;;3.92;2.95;;;;;;;;;;6295482;28;20109;-80
2023/07/22 14:47:57;;;;;;;3.60;2.83;;;;;;;;;;6302001;28;20040;-79
2023/07/22 14:50:58;;;;;;;6.37;2.83;;;;;;;;;;6302910;28;20090;-81
2023/07/22 14:54:00;;;;;;;3.83;2.93;;;;;;;;;;6296747;28;20505;-79
2023/07/22 14:57:01;;;;;;;4.07;2.57;;;;;;;;;;6300879;28;20040;-79
2023/07/22 15:00:04;;;;;;;4.67;2.63;;;;;;;;;;6300088;28;20044;-81
2023/07/22 15:03:05;;;;;;;;;;;;;;;;;;6284792;28;20044;-80
2023/07/22 15:06:07;;;;;;;4.30;3.55;;;;;;;;;;6293625;28;20509;-79
2023/07/22 15:09:10;;;;;;;4.73;3.07;;;;;;;;;;6285216;28;20048;-78
2023/07/22 15:12:11;;;;;;;3.40;3.03;;;;;;;;;;6291897;28;20434;-78
2023/07/22 15:15:16;;;;;;;3.53;2.83;;;;;;;;;;6302856;28;20044;-79
2023/07/22 15:18:17;;;;;;;4.30;3.38;;;;;;;;;;6296765;28;20052;-80
2023/07/22 15:21:19;;;;;;;3.03;2.72;;;;;;;;;;6299062;28;20040;-78
2023/07/22 15:24:20;;;;;;;3.60;3.03;;;;;;;;;;6302010;28;20063;-77
2023/07/22 15:27:22;;;;;;;4.40;2.93;;;;;;;;;;6304437;28;20995;-80
2023/07/22 15:30:24;;;;;;;4.27;2.90;;;;;;;;;;6302223;28;20143;-78
2023/07/22 15:33:25;;;;;;;4.73;2.87;;;;;;;;;;6306270;28;20446;-79
2023/07/22 15:36:27;;;;;;;4.43;3.30;;;;;;;;;;6283958;28;20537;-80
2023/07/22 15:39:29;;;;;;;4.50;2.90;;;;;;;;;;6291105;28;20060;-80
2023/07/22 15:42:30;;;;;;;5.13;2.90;;;;;;;;;;6299938;28;20518;-80
2023/07/22 15:45:32;;;;;;;4.17;3.27;;;;;;;;;;6308854;28;20395;-80
2023/07/22 15:48:34;;;;;;;3.10;2.80;;;;;;;;;;6304819;28;20050;-78
2023/07/22 15:51:35;;;;;;;4.67;2.80;;;;;;;;;;6302193;28;20052;-82
2023/07/22 15:54:37;;;;;;;3.50;2.80;;;;;;;;;;6305776;28;20438;-81
2023/07/22 15:57:39;;;;;;;4.50;2.97;;;;;;;;;;6321803;28;20048;-77
2023/07/22 16:00:40;;;;;;;4.22;2.95;;;;;;;;;;6306143;28;20533;-77
2023/07/22 16:03:42;;;;;;;5.77;3.00;;;;;;;;;;6301323;28;20048;-77
2023/07/22 16:06:44;;;;;;;4.80;2.77;;;;;;;;;;6299589;28;20130;-80
2023/07/22 16:09:45;;;;;;;7.23;3.17;;;;;;;;;;6290945;28;20048;-80
2023/07/22 16:12:47;;;;;;;4.77;2.90;;;;;;;;;;6289210;28;20047;-80
2023/07/22 16:15:48;;;;;;;5.43;3.20;;;;;;;;;;6305485;28;20427;-79
2023/07/22 16:18:53;;;;;;;4.68;3.00;;;;;;;;;;6305253;28;20051;-79
2023/07/22 16:21:54;;;;;;;5.05;3.33;;;;;;;;;;6284937;28;20048;-79
2023/07/22 16:24:56;;;;;;;4.90;3.27;;;;;;;;;;6300237;28;20571;-78
2023/07/22 16:27:57;;;;;;;4.63;3.27;;;;;;;;;;6302715;28;20047;-79
2023/07/22 16:30:59;;;;;;;7.20;3.23;;;;;;;;;;6302469;28;20074;-78
2023/07/22 16:34:01;;;;;;;5.77;3.80;;;;;;;;;;6286528;28;20048;-79
2023/07/22 16:37:03;;;;;;;4.80;3.17;;;;;;;;;;6289879;28;20039;-79
2023/07/22 16:40:07;;;;;;;4.80;2.97;;;;;;;;;;6297089;28;20411;-79
2023/07/22 16:43:09;;;;;;;4.85;3.13;;;;;;;;;;6301499;28;20048;-80
2023/07/22 16:46:10;;;;;;;5.30;4.25;;;;;;;;;;6274222;28;20260;-78
2023/07/22 16:49:12;;;;;;;4.97;3.80;;;;;;;;;;6302214;28;20554;-78
2023/07/22 16:52:17;;;;;;;4.93;3.08;;;;;;;;;;6299820;28;20474;-77
2023/07/22 16:55:18;;;;;;;5.57;3.10;;;;;;;;;;6306137;28;20124;-79
2023/07/22 16:58:20;;;;;;;6.53;3.80;;;;;;;;;;6300827;28;20048;-78
2023/07/22 17:01:22;;;;;;;5.30;3.13;;;;;;;;;;6288621;28;20565;-78
2023/07/22 17:04:23;;;;;;;6.10;3.20;;;;;;;;;;6297509;28;20044;-78
2023/07/22 17:07:25;;;;;;;5.28;3.30;;;;;;;;;;6300170;28;20177;-77
2023/07/22 17:10:27;;;;;;;6.10;3.78;;;;;;;;;;6287411;28;20051;-79
2023/07/22 17:13:28;;;;;;;5.47;3.27;;;;;;;;;;6301023;28;20506;-79
2023/07/22 17:16:32;;;;;;;4.97;3.08;;;;;;;;;;6297191;28;20161;-79
2023/07/22 17:19:33;;;;;;;4.43;3.00;;;;;;;;;;6301926;28;20071;-81
2023/07/22 17:22:35;;;;;;;4.77;3.43;;;;;;;;;;6305565;28;20162;-78
2023/07/22 17:25:37;;;;;;;5.07;3.35;;;;;;;;;;6299195;28;20182;-81
2023/07/22 17:28:38;;;;;;;5.13;3.40;;;;;;;;;;6294308;28;20055;-78
2023/07/22 17:31:40;;;;;;;4.78;3.08;;;;;;;;;;6303527;28;20461;-82
2023/07/22 17:34:42;;;;;;;5.40;3.20;;;;;;;;;;6284609;28;20044;-80
2023/07/22 17:37:44;;;;;;;8.13;3.60;;;;;;;;;;6277406;28;20056;-83
2023/07/22 17:40:49;;;;;;;4.70;3.20;;;;;;;;;;6295765;28;20431;-81
2023/07/22 17:43:50;;;;;;;5.38;3.30;;;;;;;;;;6311164;28;20054;-80
2023/07/22 17:46:52;;;;;;;4.03;3.30;;;;;;;;;;6291932;28;20508;-81
2023/07/22 17:49:55;;;;;;;5.97;3.40;;;;;;;;;;6301523;28;20078;-82
2023/07/22 17:52:57;;;;;;;7.68;3.30;;;;;;;;;;6298648;28;20113;-82
2023/07/22 17:55:58;;;;;;;5.15;3.40;;;;;;;;;;6306203;28;20563;-80
2023/07/22 17:59:00;;;;;;;5.75;3.50;;;;;;;;;;6287197;28;20048;-80
2023/07/22 18:02:02;;;;;;;5.10;3.10;;;;;;;;;;6297071;28;20706;-80
2023/07/22 18:05:05;;;;;;;;;;;;;;;;;;6298805;28;20114;-78
2023/07/22 18:08:07;;;;;;;7.95;3.08;;;;;;;;;;6304539;28;19955;-79
2023/07/22 18:11:08;;;;;;;5.15;3.05;;;;;;;;;;6280735;28;20163;-79
2023/07/22 18:14:10;;;;;;;4.00;3.10;;;;;;;;;;6298225;28;20040;-78